sensor_id;sensor_type;location;lat;lon;timestamp;pressure;altitude;pressure_sealevel;temperature;humidity
5996;BME280;3026;53.612;7.278;2023-02-04T00:00:04;102897.13;;;7.54;100.00
5996;BME280;3026;53.612;7.278;2023-02-04T00:02:32;102905.38;;;7.53;100.00
5996;BME280;3026;53.612;7.278;2023-02-04T00:04:59;102907.19;;;7.52;100.00
5996;BME280;3026;53.612;7.278;2023-02-04T00:07:26;102917.41;;;7.49;100.00
5996;BME280;3026;53.612;7.278;2023-02-04T00:09:53;102921.19;;;7.46;100.00
5996;BME280;3026;53.612;7.278;2023-02-04T00:12:22;102920.66;;;7.41;100.00
5996;BME280;3026;53.612;7.278;2023-02-04T00:14:49;102934.41;;;7.38;100.00
5996;BME280;3026;53.612;7.278;2023-02-04T00:17:16;102942.53;;;7.38;100.00
5996;BME280;3026;53.612;7.278;2023-02-04T00:19:43;102950.03;;;7.35;100.00
5996;BME280;3026;53.612;7.278;2023-02-04T00:22:10;102952.25;;;7.28;100.00
5996;BME280;3026;53.612;7.278;2023-02-04T00:24:37;102953.22;;;7.27;100.00
5996;BME280;3026;53.612;7.278;2023-02-04T00:27:05;102964.28;;;7.24;100.00
5996;BME280;3026;53.612;7.278;2023-02-04T00:29:33;102973.50;;;7.21;100.00
5996;BME280;3026;53.612;7.278;2023-02-04T00:32:03;102979.03;;;7.20;100.00
5996;BME280;3026;53.612;7.278;2023-02-04T00:34:30;102973.78;;;7.17;100.00
5996;BME280;3026;53.612;7.278;2023-02-04T00:36:57;102974.97;;;7.13;100.00
5996;BME280;3026;53.612;7.278;2023-02-04T00:39:24;102982.44;;;7.09;100.00
5996;BME280;3026;53.612;7.278;2023-02-04T00:41:50;102978.09;;;7.07;100.00
5996;BME280;3026;53.612;7.278;2023-02-04T00:44:17;102984.28;;;7.09;100.00
5996;BME280;3026;53.612;7.278;2023-02-04T00:46:45;102981.75;;;7.06;100.00
5996;BME280;3026;53.612;7.278;2023-02-04T00:49:14;102996.09;;;7.08;100.00
5996;BME280;3026;53.612;7.278;2023-02-04T00:51:40;103007.94;;;7.07;100.00
5996;BME280;3026;53.612;7.278;2023-02-04T00:54:11;103017.09;;;7.04;100.00
5996;BME280;3026;53.612;7.278;2023-02-04T00:56:38;103014.50;;;7.02;100.00
5996;BME280;3026;53.612;7.278;2023-02-04T00:59:04;103022.06;;;6.97;100.00
5996;BME280;3026;53.612;7.278;2023-02-04T01:01:31;103040.28;;;6.95;100.00
5996;BME280;3026;53.612;7.278;2023-02-04T01:03:59;103048.41;;;6.95;100.00
5996;BME280;3026;53.612;7.278;2023-02-04T01:06:26;103046.66;;;6.94;100.00
5996;BME280;3026;53.612;7.278;2023-02-04T01:08:53;103044.91;;;6.93;100.00
5996;BME280;3026;53.612;7.278;2023-02-04T01:11:20;103051.28;;;6.92;100.00
5996;BME280;3026;53.612;7.278;2023-02-04T01:13:46;103062.16;;;6.92;100.00
5996;BME280;3026;53.612;7.278;2023-02-04T01:16:13;103056.06;;;6.89;100.00
5996;BME280;3026;53.612;7.278;2023-02-04T01:18:40;103058.66;;;6.90;100.00
5996;BME280;3026;53.612;7.278;2023-02-04T01:21:08;103062.16;;;6.92;100.00
5996;BME280;3026;53.612;7.278;2023-02-04T01:23:35;103068.53;;;6.91;100.00
5996;BME280;3026;53.612;7.278;2023-02-04T01:26:02;103069.50;;;6.90;100.00
5996;BME280;3026;53.612;7.278;2023-02-04T01:28:29;103061.47;;;6.89;100.00
5996;BME280;3026;53.612;7.278;2023-02-04T01:30:56;103065.25;;;6.86;100.00
5996;BME280;3026;53.612;7.278;2023-02-04T01:33:23;103069.91;;;6.84;100.00
5996;BME280;3026;53.612;7.278;2023-02-04T01:35:49;103069.09;;;6.82;100.00
5996;BME280;3026;53.612;7.278;2023-02-04T01:38:18;103083.63;;;6.81;100.00
5996;BME280;3026;53.612;7.278;2023-02-04T01:40:44;103091.19;;;6.76;100.00
5996;BME280;3026;53.612;7.278;2023-02-04T01:43:11;103090.75;;;6.68;100.00
5996;BME280;3026;53.612;7.278;2023-02-04T01:45:39;103096.19;;;6.68;100.00
5996;BME280;3026;53.612;7.278;2023-02-04T01:48:06;103099.69;;;6.70;100.00
5996;BME280;3026;53.612;7.278;2023-02-04T01:50:34;103103.56;;;6.66;100.00
5996;BME280;3026;53.612;7.278;2023-02-04T01:53:00;103098.47;;;6.60;100.00
5996;BME280;3026;53.612;7.278;2023-02-04T01:55:31;103100.41;;;6.58;100.00
5996;BME280;3026;53.612;7.278;2023-02-04T01:57:58;103099.63;;;6.56;100.00
5996;BME280;3026;53.612;7.278;2023-02-04T02:00:27;103099.63;;;6.56;100.00
5996;BME280;3026;53.612;7.278;2023-02-04T02:02:55;103097.13;;;6.53;100.00
5996;BME280;3026;53.612;7.278;2023-02-04T02:05:24;103099.41;;;6.44;100.00
5996;BME280;3026;53.612;7.278;2023-02-04T02:07:53;103115.66;;;6.44;100.00
5996;BME280;3026;53.612;7.278;2023-02-04T02:10:21;103119.44;;;6.42;100.00
5996;BME280;3026;53.612;7.278;2023-02-04T02:12:49;103116.72;;;6.42;100.00
5996;BME280;3026;53.612;7.278;2023-02-04T02:15:17;103108.88;;;6.37;100.00
5996;BME280;3026;53.612;7.278;2023-02-04T02:17:44;103124.19;;;6.38;100.00
5996;BME280;3026;53.612;7.278;2023-02-04T02:20:14;103134.19;;;6.36;100.00
5996;BME280;3026;53.612;7.278;2023-02-04T02:22:50;103142.34;;;6.36;100.00
5996;BME280;3026;53.612;7.278;2023-02-04T02:25:20;103147.69;;;6.38;100.00
5996;BME280;3026;53.612;7.278;2023-02-04T02:27:47;103150.66;;;6.33;100.00
5996;BME280;3026;53.612;7.278;2023-02-04T02:30:14;103166.03;;;6.33;100.00
5996;BME280;3026;53.612;7.278;2023-02-04T02:32:44;103170.59;;;6.32;100.00
5996;BME280;3026;53.612;7.278;2023-02-04T02:35:13;103174.25;;;6.31;100.00
5996;BME280;3026;53.612;7.278;2023-02-04T02:37:41;103166.91;;;6.33;100.00
5996;BME280;3026;53.612;7.278;2023-02-04T02:40:09;103178.72;;;6.32;100.00
5996;BME280;3026;53.612;7.278;2023-02-04T02:42:38;103181.59;;;6.29;100.00
5996;BME280;3026;53.612;7.278;2023-02-04T02:45:19;103178.81;;;6.31;100.00
5996;BME280;3026;53.612;7.278;2023-02-04T02:47:47;103183.34;;;6.30;100.00
5996;BME280;3026;53.612;7.278;2023-02-04T02:50:17;103188.78;;;6.30;100.00
5996;BME280;3026;53.612;7.278;2023-02-04T02:52:45;103191.47;;;6.30;100.00
5996;BME280;3026;53.612;7.278;2023-02-04T02:55:14;103179.88;;;6.28;100.00
5996;BME280;3026;53.612;7.278;2023-02-04T02:57:43;103181.44;;;6.32;100.00
5996;BME280;3026;53.612;7.278;2023-02-04T03:00:15;103177.94;;;6.30;100.00
5996;BME280;3026;53.612;7.278;2023-02-04T03:02:42;103179.78;;;6.30;100.00
5996;BME280;3026;53.612;7.278;2023-02-04T03:05:11;103187.03;;;6.29;100.00
5996;BME280;3026;53.612;7.278;2023-02-04T03:07:38;103191.03;;;6.22;100.00
5996;BME280;3026;53.612;7.278;2023-02-04T03:10:06;103191.03;;;6.22;100.00
5996;BME280;3026;53.612;7.278;2023-02-04T03:12:33;103192.00;;;6.21;100.00
5996;BME280;3026;53.612;7.278;2023-02-04T03:15:02;103202.75;;;6.23;100.00
5996;BME280;3026;53.612;7.278;2023-02-04T03:17:29;103207.47;;;6.19;100.00
5996;BME280;3026;53.612;7.278;2023-02-04T03:19:56;103205.91;;;6.15;100.00
5996;BME280;3026;53.612;7.278;2023-02-04T03:22:23;103211.38;;;6.13;100.00
5996;BME280;3026;53.612;7.278;2023-02-04T03:24:50;103212.44;;;6.11;100.00
5996;BME280;3026;53.612;7.278;2023-02-04T03:27:17;103215.16;;;6.11;100.00
5996;BME280;3026;53.612;7.278;2023-02-04T03:29:44;103215.16;;;6.11;100.00
5996;BME280;3026;53.612;7.278;2023-02-04T03:32:12;103225.19;;;6.09;100.00
5996;BME280;3026;53.612;7.278;2023-02-04T03:34:39;103229.84;;;6.07;100.00
5996;BME280;3026;53.612;7.278;2023-02-04T03:37:06;103226.34;;;6.05;100.00
5996;BME280;3026;53.612;7.278;2023-02-04T03:39:33;103219.31;;;6.01;100.00
5996;BME280;3026;53.612;7.278;2023-02-04T03:42:00;103222.22;;;5.98;100.00
5996;BME280;3026;53.612;7.278;2023-02-04T03:44:27;103231.47;;;5.94;100.00
5996;BME280;3026;53.612;7.278;2023-02-04T03:46:53;103240.66;;;5.90;100.00
5996;BME280;3026;53.612;7.278;2023-02-04T03:49:22;103241.81;;;5.85;100.00
5996;BME280;3026;53.612;7.278;2023-02-04T03:51:49;103248.97;;;5.86;100.00
5996;BME280;3026;53.612;7.278;2023-02-04T03:54:16;103260.75;;;5.85;100.00
5996;BME280;3026;53.612;7.278;2023-02-04T03:56:43;103256.50;;;5.81;100.00
5996;BME280;3026;53.612;7.278;2023-02-04T03:59:10;103251.22;;;5.78;100.00
5996;BME280;3026;53.612;7.278;2023-02-04T04:01:38;103258.91;;;5.70;100.00
5996;BME280;3026;53.612;7.278;2023-02-04T04:04:04;103262.56;;;5.69;100.00
5996;BME280;3026;53.612;7.278;2023-02-04T04:06:33;103273.53;;;5.66;100.00
5996;BME280;3026;53.612;7.278;2023-02-04T04:09:00;103273.88;;;5.60;100.00
5996;BME280;3026;53.612;7.278;2023-02-04T04:11:27;103279.47;;;5.57;100.00
5996;BME280;3026;53.612;7.278;2023-02-04T04:13:53;103286.94;;;5.52;100.00
5996;BME280;3026;53.612;7.278;2023-02-04T04:16:20;103294.25;;;5.50;100.00
5996;BME280;3026;53.612;7.278;2023-02-04T04:18:47;103301.59;;;5.48;100.00
5996;BME280;3026;53.612;7.278;2023-02-04T04:21:14;103309.88;;;5.45;100.00
5996;BME280;3026;53.612;7.278;2023-02-04T04:23:42;103315.34;;;5.43;100.00
5996;BME280;3026;53.612;7.278;2023-02-04T04:26:09;103326.25;;;5.42;100.00
5996;BME280;3026;53.612;7.278;2023-02-04T04:28:36;103327.13;;;5.42;100.00
5996;BME280;3026;53.612;7.278;2023-02-04T04:31:03;103318.28;;;5.39;100.00
5996;BME280;3026;53.612;7.278;2023-02-04T04:33:31;103316.69;;;5.35;100.00
5996;BME280;3026;53.612;7.278;2023-02-04T04:35:57;103319.50;;;5.33;100.00
5996;BME280;3026;53.612;7.278;2023-02-04T04:38:24;103327.66;;;5.32;100.00
5996;BME280;3026;53.612;7.278;2023-02-04T04:40:52;103319.78;;;5.27;100.00
5996;BME280;3026;53.612;7.278;2023-02-04T04:43:19;103323.53;;;5.24;100.00
5996;BME280;3026;53.612;7.278;2023-02-04T04:45:46;103328.00;;;5.25;100.00
5996;BME280;3026;53.612;7.278;2023-02-04T04:48:13;103329.91;;;5.23;100.00
5996;BME280;3026;53.612;7.278;2023-02-04T04:50:40;103332.81;;;5.19;100.00
5996;BME280;3026;53.612;7.278;2023-02-04T04:53:07;103328.44;;;5.16;100.00
5996;BME280;3026;53.612;7.278;2023-02-04T04:55:35;103337.50;;;5.15;100.00
5996;BME280;3026;53.612;7.278;2023-02-04T04:58:04;103337.69;;;5.12;100.00
5996;BME280;3026;53.612;7.278;2023-02-04T05:00:31;103344.16;;;5.08;100.00
5996;BME280;3026;53.612;7.278;2023-02-04T05:02:58;103347.03;;;5.05;100.00
5996;BME280;3026;53.612;7.278;2023-02-04T05:05:26;103357.84;;;5.05;100.00
5996;BME280;3026;53.612;7.278;2023-02-04T05:07:52;103352.59;;;5.02;100.00
5996;BME280;3026;53.612;7.278;2023-02-04T05:10:20;103337.41;;;5.00;100.00
5996;BME280;3026;53.612;7.278;2023-02-04T05:12:46;103344.50;;;5.02;100.00
5996;BME280;3026;53.612;7.278;2023-02-04T05:15:15;103351.72;;;5.02;100.00
5996;BME280;3026;53.612;7.278;2023-02-04T05:17:42;103356.25;;;5.01;100.00
5996;BME280;3026;53.612;7.278;2023-02-04T05:20:09;103372.31;;;5.04;100.00
5996;BME280;3026;53.612;7.278;2023-02-04T05:22:36;103376.00;;;5.03;100.00
5996;BME280;3026;53.612;7.278;2023-02-04T05:25:03;103376.00;;;5.03;100.00
5996;BME280;3026;53.612;7.278;2023-02-04T05:27:30;103379.50;;;5.05;100.00
5996;BME280;3026;53.612;7.278;2023-02-04T05:29:57;103380.53;;;5.03;100.00
5996;BME280;3026;53.612;7.278;2023-02-04T05:32:25;103399.69;;;4.98;100.00
5996;BME280;3026;53.612;7.278;2023-02-04T05:34:52;103406.97;;;4.96;100.00
5996;BME280;3026;53.612;7.278;2023-02-04T05:37:19;103398.78;;;4.97;100.00
5996;BME280;3026;53.612;7.278;2023-02-04T05:39:46;103389.75;;;4.98;100.00
5996;BME280;3026;53.612;7.278;2023-02-04T05:42:13;103386.16;;;4.98;100.00
5996;BME280;3026;53.612;7.278;2023-02-04T05:44:39;103403.19;;;5.00;100.00
5996;BME280;3026;53.612;7.278;2023-02-04T05:47:06;103405.09;;;4.98;100.00
5996;BME280;3026;53.612;7.278;2023-02-04T05:49:34;103407.81;;;4.98;100.00
5996;BME280;3026;53.612;7.278;2023-02-04T05:52:01;103405.22;;;4.95;100.00
5996;BME280;3026;53.612;7.278;2023-02-04T05:54:28;103407.63;;;5.01;100.00
5996;BME280;3026;53.612;7.278;2023-02-04T05:56:55;103406.84;;;4.99;100.00
5996;BME280;3026;53.612;7.278;2023-02-04T05:59:22;103414.09;;;4.98;100.00
5996;BME280;3026;53.612;7.278;2023-02-04T06:01:49;103406.97;;;4.96;100.00
5996;BME280;3026;53.612;7.278;2023-02-04T06:04:16;103412.53;;;4.93;100.00
5996;BME280;3026;53.612;7.278;2023-02-04T06:06:44;103418.09;;;4.90;100.00
5996;BME280;3026;53.612;7.278;2023-02-04T06:09:12;103423.59;;;4.88;100.00
5996;BME280;3026;53.612;7.278;2023-02-04T06:11:39;103429.06;;;4.87;100.00
5996;BME280;3026;53.612;7.278;2023-02-04T06:14:05;103430.94;;;4.85;100.00
5996;BME280;3026;53.612;7.278;2023-02-04T06:16:32;103427.44;;;4.83;100.00
5996;BME280;3026;53.612;7.278;2023-02-04T06:18:59;103431.09;;;4.82;100.00
5996;BME280;3026;53.612;7.278;2023-02-04T06:21:26;103446.44;;;4.81;100.00
5996;BME280;3026;53.612;7.278;2023-02-04T06:23:54;103444.84;;;4.77;100.00
5996;BME280;3026;53.612;7.278;2023-02-04T06:26:21;103452.88;;;4.79;100.00
5996;BME280;3026;53.612;7.278;2023-02-04T06:28:48;103454.78;;;4.77;100.00
5996;BME280;3026;53.612;7.278;2023-02-04T06:31:15;103462.09;;;4.75;100.00
5996;BME280;3026;53.612;7.278;2023-02-04T06:33:41;103461.25;;;4.73;100.00
5996;BME280;3026;53.612;7.278;2023-02-04T06:36:08;103473.00;;;4.72;100.00
5996;BME280;3026;53.612;7.278;2023-02-04T06:38:35;103466.81;;;4.69;100.00
5996;BME280;3026;53.612;7.278;2023-02-04T06:41:04;103472.44;;;4.65;100.00
5996;BME280;3026;53.612;7.278;2023-02-04T06:43:30;103466.41;;;4.58;100.00
5996;BME280;3026;53.612;7.278;2023-02-04T06:45:57;103486.28;;;4.57;100.00
5996;BME280;3026;53.612;7.278;2023-02-04T06:48:24;103488.19;;;4.55;100.00
5996;BME280;3026;53.612;7.278;2023-02-04T06:50:51;103491.91;;;4.53;100.00
5996;BME280;3026;53.612;7.278;2023-02-04T06:53:18;103491.03;;;4.52;100.00
5996;BME280;3026;53.612;7.278;2023-02-04T06:55:45;103487.50;;;4.50;100.00
5996;BME280;3026;53.612;7.278;2023-02-04T06:58:13;103499.25;;;4.49;100.00
5996;BME280;3026;53.612;7.278;2023-02-04T07:00:40;103509.34;;;4.46;100.00
5996;BME280;3026;53.612;7.278;2023-02-04T07:03:07;103506.88;;;4.39;100.00
5996;BME280;3026;53.612;7.278;2023-02-04T07:05:34;103509.56;;;4.41;100.00
5996;BME280;3026;53.612;7.278;2023-02-04T07:08:01;103513.84;;;4.45;100.00
5996;BME280;3026;53.612;7.278;2023-02-04T07:10:29;103514.00;;;4.42;100.00
5996;BME280;3026;53.612;7.278;2023-02-04T07:12:57;103525.75;;;4.41;100.00
5996;BME280;3026;53.612;7.278;2023-02-04T07:15:25;103523.06;;;4.41;100.00
5996;BME280;3026;53.612;7.278;2023-02-04T07:17:52;103526.72;;;4.40;100.00
5996;BME280;3026;53.612;7.278;2023-02-04T07:20:19;103527.75;;;4.36;100.00
5996;BME280;3026;53.612;7.278;2023-02-04T07:22:46;103533.09;;;4.37;100.00
5996;BME280;3026;53.612;7.278;2023-02-04T07:25:13;103536.81;;;4.35;100.00
5996;BME280;3026;53.612;7.278;2023-02-04T07:27:42;103542.28;;;4.33;100.00
5996;BME280;3026;53.612;7.278;2023-02-04T07:30:10;103548.81;;;4.28;100.00
5996;BME280;3026;53.612;7.278;2023-02-04T07:32:38;103552.47;;;4.27;100.00
5996;BME280;3026;53.612;7.278;2023-02-04T07:35:06;103564.91;;;4.31;100.00
5996;BME280;3026;53.612;7.278;2023-02-04T07:37:33;103569.44;;;4.30;100.00
5996;BME280;3026;53.612;7.278;2023-02-04T07:40:00;103564.91;;;4.31;100.00
5996;BME280;3026;53.612;7.278;2023-02-04T07:42:27;103559.63;;;4.28;100.00
5996;BME280;3026;53.612;7.278;2023-02-04T07:44:53;103566.69;;;4.32;100.00
5996;BME280;3026;53.612;7.278;2023-02-04T07:47:20;103579.22;;;4.33;100.00
5996;BME280;3026;53.612;7.278;2023-02-04T07:49:49;103582.88;;;4.32;100.00
5996;BME280;3026;53.612;7.278;2023-02-04T07:52:16;103579.22;;;4.33;100.00
5996;BME280;3026;53.612;7.278;2023-02-04T07:54:43;103580.13;;;4.33;100.00
5996;BME280;3026;53.612;7.278;2023-02-04T07:57:10;103577.34;;;4.35;100.00
5996;BME280;3026;53.612;7.278;2023-02-04T07:59:37;103587.13;;;4.37;100.00
5996;BME280;3026;53.612;7.278;2023-02-04T08:02:03;103579.09;;;4.36;100.00
5996;BME280;3026;53.612;7.278;2023-02-04T08:04:30;103588.16;;;4.35;100.00
5996;BME280;3026;53.612;7.278;2023-02-04T08:06:59;103583.63;;;4.35;100.00
5996;BME280;3026;53.612;7.278;2023-02-04T08:09:25;103589.91;;;4.36;100.00
5996;BME280;3026;53.612;7.278;2023-02-04T08:11:52;103585.44;;;4.35;100.00
5996;BME280;3026;53.612;7.278;2023-02-04T08:14:20;103594.44;;;4.35;100.00
5996;BME280;3026;53.612;7.278;2023-02-04T08:16:46;103589.03;;;4.35;100.00
5996;BME280;3026;53.612;7.278;2023-02-04T08:19:13;103592.59;;;4.36;100.00
5996;BME280;3026;53.612;7.278;2023-02-04T08:21:43;103609.63;;;4.38;100.00
5996;BME280;3026;53.612;7.278;2023-02-04T08:24:12;103598.97;;;4.35;100.00
5996;BME280;3026;53.612;7.278;2023-02-04T08:26:40;103598.06;;;4.34;100.00
5996;BME280;3026;53.612;7.278;2023-02-04T08:29:07;103609.75;;;4.35;100.00
5996;BME280;3026;53.612;7.278;2023-02-04T08:31:34;103605.31;;;4.34;100.00
5996;BME280;3026;53.612;7.278;2023-02-04T08:34:02;103609.63;;;4.38;100.00
5996;BME280;3026;53.612;7.278;2023-02-04T08:36:29;103607.88;;;4.37;100.00
5996;BME280;3026;53.612;7.278;2023-02-04T08:38:56;103613.16;;;4.40;100.00
5996;BME280;3026;53.612;7.278;2023-02-04T08:41:24;103629.25;;;4.43;100.00
5996;BME280;3026;53.612;7.278;2023-02-04T08:43:51;103616.53;;;4.45;100.00
5996;BME280;3026;53.612;7.278;2023-02-04T08:46:18;103614.91;;;4.41;100.00
5996;BME280;3026;53.612;7.278;2023-02-04T08:48:45;103620.03;;;4.47;100.00
5996;BME280;3026;53.612;7.278;2023-02-04T08:51:11;103630.84;;;4.47;100.00
5996;BME280;3026;53.612;7.278;2023-02-04T08:53:38;103634.25;;;4.52;100.00
5996;BME280;3026;53.612;7.278;2023-02-04T08:56:05;103632.47;;;4.51;100.00
5996;BME280;3026;53.612;7.278;2023-02-04T08:58:34;103637.78;;;4.54;100.00
5996;BME280;3026;53.612;7.278;2023-02-04T09:01:02;103643.91;;;4.58;100.00
5996;BME280;3026;53.612;7.278;2023-02-04T09:03:31;103641.13;;;4.59;100.00
5996;BME280;3026;53.612;7.278;2023-02-04T09:05:58;103641.13;;;4.59;100.00
5996;BME280;3026;53.612;7.278;2023-02-04T09:08:25;103638.28;;;4.62;100.00
5996;BME280;3026;53.612;7.278;2023-02-04T09:10:52;103639.13;;;4.64;100.00
5996;BME280;3026;53.612;7.278;2023-02-04T09:13:18;103641.69;;;4.67;100.00
5996;BME280;3026;53.612;7.278;2023-02-04T09:15:46;103651.44;;;4.72;100.00
5996;BME280;3026;53.612;7.278;2023-02-04T09:18:14;103651.31;;;4.75;100.00
5996;BME280;3026;53.612;7.278;2023-02-04T09:20:43;103652.44;;;4.69;100.00
5996;BME280;3026;53.612;7.278;2023-02-04T09:23:11;103654.69;;;4.80;100.00
5996;BME280;3026;53.612;7.278;2023-02-04T09:25:39;103658.94;;;4.85;100.00
5996;BME280;3026;53.612;7.278;2023-02-04T09:28:06;103668.84;;;4.86;100.00
5996;BME280;3026;53.612;7.278;2023-02-04T09:30:34;103670.50;;;4.89;100.00
5996;BME280;3026;53.612;7.278;2023-02-04T09:33:02;103662.31;;;4.90;100.00
5996;BME280;3026;53.612;7.278;2023-02-04T09:35:30;103661.44;;;4.90;100.00
5996;BME280;3026;53.612;7.278;2023-02-04T09:37:56;103664.16;;;4.90;100.00
5996;BME280;3026;53.612;7.278;2023-02-04T09:40:26;103661.44;;;4.90;100.00
5996;BME280;3026;53.612;7.278;2023-02-04T09:42:54;103675.78;;;4.92;100.00
5996;BME280;3026;53.612;7.278;2023-02-04T09:45:23;103677.59;;;4.91;100.00
5996;BME280;3026;53.612;7.278;2023-02-04T09:47:53;103683.81;;;4.93;100.00
5996;BME280;3026;53.612;7.278;2023-02-04T09:50:25;103689.97;;;4.97;100.00
5996;BME280;3026;53.612;7.278;2023-02-04T09:52:54;103697.16;;;4.98;100.00
5996;BME280;3026;53.612;7.278;2023-02-04T09:55:29;103692.28;;;5.06;100.00
5996;BME280;3026;53.612;7.278;2023-02-04T09:57:56;103691.81;;;5.17;100.00
5996;BME280;3026;53.612;7.278;2023-02-04T10:00:27;103690.66;;;5.22;100.00
5996;BME280;3026;53.612;7.278;2023-02-04T10:02:55;103696.97;;;5.23;100.00
5996;BME280;3026;53.612;7.278;2023-02-04T10:05:28;103690.66;;;5.22;100.00
5996;BME280;3026;53.612;7.278;2023-02-04T10:07:56;103694.03;;;5.27;100.00
5996;BME280;3026;53.612;7.278;2023-02-04T10:10:25;103704.59;;;5.34;100.00
5996;BME280;3026;53.612;7.278;2023-02-04T10:12:55;103705.25;;;5.39;100.00
5996;BME280;3026;53.612;7.278;2023-02-04T10:15:22;103714.41;;;5.55;100.00
5996;BME280;3026;53.612;7.278;2023-02-04T10:17:52;103720.03;;;5.71;100.00
5996;BME280;3026;53.612;7.278;2023-02-04T10:20:22;103718.03;;;5.95;100.00
5996;BME280;3026;53.612;7.278;2023-02-04T10:22:52;103722.56;;;6.13;100.00
5996;BME280;3026;53.612;7.278;2023-02-04T10:25:22;103713.34;;;6.17;100.00
5996;BME280;3026;53.612;7.278;2023-02-04T10:27:51;103713.72;;;6.28;100.00
5996;BME280;3026;53.612;7.278;2023-02-04T10:30:20;103705.94;;;6.39;100.00
5996;BME280;3026;53.612;7.278;2023-02-04T10:32:48;103709.34;;;6.62;100.00
5996;BME280;3026;53.612;7.278;2023-02-04T10:35:18;103711.63;;;6.69;100.00
5996;BME280;3026;53.612;7.278;2023-02-04T10:37:46;103721.31;;;6.75;100.00
5996;BME280;3026;53.612;7.278;2023-02-04T10:40:29;103714.31;;;6.88;100.00
5996;BME280;3026;53.612;7.278;2023-02-04T10:42:56;103709.28;;;7.15;100.00
5996;BME280;3026;53.612;7.278;2023-02-04T10:45:25;103718.47;;;7.30;100.00
5996;BME280;3026;53.612;7.278;2023-02-04T10:47:56;103721.50;;;7.41;100.00
5996;BME280;3026;53.612;7.278;2023-02-04T10:50:24;103720.44;;;7.44;100.00
5996;BME280;3026;53.612;7.278;2023-02-04T10:52:54;103714.97;;;7.61;100.00
5996;BME280;3026;53.612;7.278;2023-02-04T10:55:43;103711.03;;;7.67;100.00
5996;BME280;3026;53.612;7.278;2023-02-04T10:58:13;103700.88;;;7.70;100.00
5996;BME280;3026;53.612;7.278;2023-02-04T11:00:41;103698.63;;;7.78;100.00
5996;BME280;3026;53.612;7.278;2023-02-04T11:03:11;103713.94;;;8.12;100.00
5996;BME280;3026;53.612;7.278;2023-02-04T11:05:41;103700.34;;;8.12;100.00
5996;BME280;3026;53.612;7.278;2023-02-04T11:08:20;103711.47;;;8.24;100.00
5996;BME280;3026;53.612;7.278;2023-02-04T11:10:54;103707.44;;;8.15;100.00
5996;BME280;3026;53.612;7.278;2023-02-04T11:13:24;103705.00;;;8.10;100.00
5996;BME280;3026;53.612;7.278;2023-02-04T11:16:07;103701.63;;;8.05;100.00
5996;BME280;3026;53.612;7.278;2023-02-04T11:18:43;103702.31;;;7.93;100.00
5996;BME280;3026;53.612;7.278;2023-02-04T11:21:14;103701.88;;;7.85;100.00
5996;BME280;3026;53.612;7.278;2023-02-04T11:23:41;103693.59;;;7.71;100.00
5996;BME280;3026;53.612;7.278;2023-02-04T11:26:11;103710.00;;;7.69;100.00
5996;BME280;3026;53.612;7.278;2023-02-04T11:28:46;103700.56;;;7.76;100.00
5996;BME280;3026;53.612;7.278;2023-02-04T11:31:27;103686.72;;;7.81;100.00
5996;BME280;3026;53.612;7.278;2023-02-04T11:34:07;103696.88;;;7.93;100.00
5996;BME280;3026;53.612;7.278;2023-02-04T11:36:49;103695.13;;;7.92;100.00
5996;BME280;3026;53.612;7.278;2023-02-04T11:39:17;103702.31;;;7.93;100.00
5996;BME280;3026;53.612;7.278;2023-02-04T11:41:45;103710.88;;;7.85;100.00
5996;BME280;3026;53.612;7.278;2023-02-04T11:44:12;103699.81;;;7.73;100.00
5996;BME280;3026;53.612;7.278;2023-02-04T11:46:40;103710.88;;;7.70;100.00
5996;BME280;3026;53.612;7.278;2023-02-04T11:49:13;103718.41;;;7.65;100.00
5996;BME280;3026;53.612;7.278;2023-02-04T11:51:43;103712.63;;;7.71;100.00
5996;BME280;3026;53.612;7.278;2023-02-04T11:54:11;103715.63;;;7.82;100.00
5996;BME280;3026;53.612;7.278;2023-02-04T11:56:39;103715.44;;;7.85;100.00
5996;BME280;3026;53.612;7.278;2023-02-04T11:59:08;103714.75;;;7.81;100.00
5996;BME280;3026;53.612;7.278;2023-02-04T12:01:37;103724.28;;;7.73;100.00
5996;BME280;3026;53.612;7.278;2023-02-04T12:04:06;103729.41;;;7.61;100.00
5996;BME280;3026;53.612;7.278;2023-02-04T12:06:35;103735.28;;;7.54;100.00
5996;BME280;3026;53.612;7.278;2023-02-04T12:09:06;103729.41;;;7.61;100.00
5996;BME280;3026;53.612;7.278;2023-02-04T12:11:34;103723.03;;;7.63;100.00
5996;BME280;3026;53.612;7.278;2023-02-04T12:14:08;103734.34;;;7.71;100.00
5996;BME280;3026;53.612;7.278;2023-02-04T12:16:40;103728.44;;;7.80;100.00
5996;BME280;3026;53.612;7.278;2023-02-04T12:19:08;103726.31;;;7.85;100.00
5996;BME280;3026;53.612;7.278;2023-02-04T12:21:34;103732.81;;;7.98;100.00
5996;BME280;3026;53.612;7.278;2023-02-04T12:24:01;103730.19;;;7.97;100.00
5996;BME280;3026;53.612;7.278;2023-02-04T12:26:28;103733.78;;;7.97;100.00
5996;BME280;3026;53.612;7.278;2023-02-04T12:28:55;103734.06;;;7.93;100.00
5996;BME280;3026;53.612;7.278;2023-02-04T12:31:26;103736.94;;;7.89;100.00
5996;BME280;3026;53.612;7.278;2023-02-04T12:33:53;103730.88;;;7.84;100.00
5996;BME280;3026;53.612;7.278;2023-02-04T12:36:21;103729.47;;;7.77;100.00
5996;BME280;3026;53.612;7.278;2023-02-04T12:38:49;103719.81;;;7.72;100.00
5996;BME280;3026;53.612;7.278;2023-02-04T12:41:16;103721.56;;;7.73;100.00
5996;BME280;3026;53.612;7.278;2023-02-04T12:43:44;103709.63;;;7.75;100.00
5996;BME280;3026;53.612;7.278;2023-02-04T12:46:11;103709.22;;;7.83;100.00
5996;BME280;3026;53.612;7.278;2023-02-04T12:48:40;103705.38;;;7.87;100.00
5996;BME280;3026;53.612;7.278;2023-02-04T12:51:06;103712.59;;;7.88;100.00
5996;BME280;3026;53.612;7.278;2023-02-04T12:53:33;103716.88;;;7.92;100.00
5996;BME280;3026;53.612;7.278;2023-02-04T12:56:01;103711.78;;;7.86;100.00
5996;BME280;3026;53.612;7.278;2023-02-04T12:58:28;103704.44;;;7.88;100.00
5996;BME280;3026;53.612;7.278;2023-02-04T13:00:55;103712.66;;;7.86;100.00
5996;BME280;3026;53.612;7.278;2023-02-04T13:03:22;103705.31;;;7.88;100.00
5996;BME280;3026;53.612;7.278;2023-02-04T13:05:51;103705.31;;;7.88;100.00
5996;BME280;3026;53.612;7.278;2023-02-04T13:08:19;103713.00;;;7.96;100.00
5996;BME280;3026;53.612;7.278;2023-02-04T13:10:45;103711.44;;;7.92;100.00
5996;BME280;3026;53.612;7.278;2023-02-04T13:13:16;103718.31;;;7.99;100.00